Time;durP1;ratioP1;P1;durP2;ratioP2;P2;SDS_P1;SDS_P2;PMS_P1;PMS_P2;Temp;Humidity;BMP_temperature;BMP_pressure;BME280_temperature;BME280_humidity;BME280_pressure;Samples;Min_cycle;Max_cycle;Signal;HPM_P1;HPM_P2
2023/05/01 00:01:50;;;;;;;7.87;6.50;;;16.50;90.80;;;;;;5123537;27;20253;-64
2023/05/01 00:04:17;;;;;;;9.07;7.20;;;16.50;90.80;;;;;;5126538;27;20189;-64
2023/05/01 00:06:45;;;;;;;7.73;6.60;;;16.50;90.80;;;;;;5123635;27;20240;-64
2023/05/01 00:09:12;;;;;;;8.87;7.17;;;16.50;90.90;;;;;;5122906;27;20199;-64
2023/05/01 00:11:39;;;;;;;9.20;7.83;;;16.50;90.90;;;;;;5126048;27;20202;-64
2023/05/01 00:14:06;;;;;;;7.80;7.00;;;16.40;90.90;;;;;;5128590;27;20203;-64
2023/05/01 00:16:34;;;;;;;8.97;7.80;;;16.40;90.90;;;;;;5126382;27;20292;-64
2023/05/01 00:19:02;;;;;;;12.13;8.20;;;16.40;91.00;;;;;;5124999;27;20229;-64
2023/05/01 00:21:29;;;;;;;10.07;8.60;;;16.40;91.10;;;;;;5123171;27;20558;-64
2023/05/01 00:23:57;;;;;;;10.40;8.67;;;16.40;91.10;;;;;;5125242;27;20224;-64
2023/05/01 00:26:28;;;;;;;10.27;9.27;;;16.40;91.20;;;;;;5124845;27;20208;-64
2023/05/01 00:28:57;;;;;;;12.07;9.50;;;16.30;91.20;;;;;;5127686;27;20200;-64
2023/05/01 00:31:24;;;;;;;13.33;9.70;;;16.30;91.20;;;;;;5128394;27;20307;-64
2023/05/01 00:33:52;;;;;;;12.03;8.60;;;16.30;91.20;;;;;;5122549;27;20204;-64
2023/05/01 00:36:19;;;;;;;12.57;10.27;;;16.30;91.30;;;;;;5115233;27;20247;-64
2023/05/01 00:38:46;;;;;;;11.30;10.20;;;16.30;91.30;;;;;;5125844;27;20623;-64
2023/05/01 00:41:13;;;;;;;10.20;9.20;;;16.30;91.40;;;;;;5132007;27;20193;-64
2023/05/01 00:43:41;;;;;;;12.07;9.53;;;16.20;91.80;;;;;;5121349;27;20549;-64
2023/05/01 00:46:09;;;;;;;12.33;10.30;;;16.20;91.60;;;;;;5124283;27;20240;-64
2023/05/01 00:48:36;;;;;;;14.90;10.57;;;16.20;91.70;;;;;;5112209;27;20203;-64
2023/05/01 00:51:06;;;;;;;13.53;10.00;;;16.20;91.80;;;;;;5120671;27;20198;-64
2023/05/01 00:53:33;;;;;;;12.80;10.07;;;16.20;91.70;;;;;;5128519;27;20197;-64
2023/05/01 00:56:01;;;;;;;11.97;9.80;;;16.20;91.80;;;;;;5124004;27;20209;-64
2023/05/01 00:58:29;;;;;;;16.60;9.90;;;16.20;91.80;;;;;;5127355;27;20196;-64
2023/05/01 01:00:56;;;;;;;13.37;10.07;;;16.20;91.80;;;;;;5111537;27;20578;-65
2023/05/01 01:03:24;;;;;;;10.67;9.50;;;16.10;91.80;;;;;;5118809;27;20254;-64
2023/05/01 01:06:19;;;;;;;13.10;9.20;;;16.10;91.90;;;;;;5122084;27;20202;-65
2023/05/01 01:09:14;;;;;;;11.13;9.50;;;16.10;92.30;;;;;;5127237;27;20199;-64
2023/05/01 01:12:16;;;;;;;11.47;9.60;;;16.10;92.00;;;;;;5121531;27;20202;-64
2023/05/01 01:14:49;;;;;;;14.50;8.40;;;16.10;92.00;;;;;;5122437;27;20237;-64
2023/05/01 01:17:28;;;;;;;9.43;8.53;;;16.10;92.00;;;;;;5126091;27;20217;-64
2023/05/01 01:20:14;;;;;;;9.40;8.27;;;16.10;92.10;;;;;;5112279;27;20203;-64
2023/05/01 01:22:49;;;;;;;9.93;7.80;;;16.10;92.10;;;;;;5123190;27;20200;-64
2023/05/01 01:25:49;;;;;;;9.17;8.27;;;16.10;92.00;;;;;;5128114;27;20570;-64
2023/05/01 01:28:36;;;;;;;9.00;7.17;;;16.10;91.80;;;;;;5123017;27;20215;-64
2023/05/01 01:31:27;;;;;;;8.37;7.50;;;16.10;91.60;;;;;;5125409;27;20196;-64
2023/05/01 01:34:35;;;;;;;8.23;7.43;;;16.20;91.50;;;;;;5109776;27;20205;-64
2023/05/01 01:37:18;;;;;;;8.67;7.83;;;16.20;91.40;;;;;;5065854;28;20221;-64
2023/05/01 01:39:52;;;;;;;9.10;7.50;;;16.20;91.30;;;;;;5118882;27;20623;-64
2023/05/01 01:42:27;;;;;;;8.37;7.50;;;16.20;91.20;;;;;;5121549;27;20202;-64
2023/05/01 01:44:58;;;;;;;8.13;7.27;;;16.20;91.30;;;;;;5128188;27;20354;-64
2023/05/01 01:47:30;;;;;;;8.57;7.67;;;16.20;91.30;;;;;;5130597;27;20200;-64
2023/05/01 01:50:03;;;;;;;9.67;7.97;;;16.10;91.30;;;;;;5126159;27;20202;-64
2023/05/01 01:52:32;;;;;;;9.23;7.17;;;16.10;91.30;;;;;;5129719;27;20201;-64
2023/05/01 01:55:12;;;;;;;8.57;7.73;;;16.10;91.40;;;;;;5124737;27;20637;-64
2023/05/01 01:57:43;;;;;;;10.47;7.10;;;16.10;91.40;;;;;;5112268;27;20231;-64
2023/05/01 02:00:12;;;;;;;8.60;7.70;;;16.10;91.40;;;;;;5130449;27;20188;-64
2023/05/01 02:02:43;;;;;;;7.60;6.87;;;16.00;91.40;;;;;;5111869;27;20535;-64
2023/05/01 02:05:16;;;;;;;8.97;7.83;;;16.00;91.50;;;;;;5123350;27;20208;-64
2023/05/01 02:07:47;;;;;;;9.70;7.30;;;16.00;91.60;;;;;;5123661;27;20283;-64
2023/05/01 02:10:16;;;;;;;9.73;7.70;;;16.00;91.60;;;;;;5121415;27;20567;-64
2023/05/01 02:12:49;;;;;;;9.00;8.00;;;16.00;91.60;;;;;;5122542;27;20594;-64
2023/05/01 02:15:20;;;;;;;7.57;6.97;;;16.00;91.60;;;;;;5123964;27;20201;-64
2023/05/01 02:17:50;;;;;;;9.23;7.50;;;16.00;91.50;;;;;;5123515;27;20237;-64
2023/05/01 02:20:18;;;;;;;8.57;7.67;;;16.00;91.50;;;;;;5123173;27;21142;-64
2023/05/01 02:22:47;;;;;;;12.03;7.00;;;16.00;91.40;;;;;;5120877;27;20198;-64
2023/05/01 02:25:15;;;;;;;9.40;6.67;;;16.00;91.30;;;;;;5124525;27;20193;-64
2023/05/01 02:28:07;;;;;;;8.17;6.90;;;16.00;91.20;;;;;;5122117;27;20205;-64
2023/05/01 02:30:35;;;;;;;6.37;5.77;;;16.00;91.00;;;;;;5125845;27;20251;-64
2023/05/01 02:33:02;;;;;;;8.20;6.33;;;16.00;90.80;;;;;;5111891;28;20597;-64
2023/05/01 02:35:31;;;;;;;7.70;6.50;;;16.10;90.70;;;;;;5123079;28;20195;-64
2023/05/01 02:37:58;;;;;;;7.27;5.33;;;16.00;90.50;;;;;;5118635;28;20243;-64
2023/05/01 02:40:25;;;;;;;8.00;5.13;;;16.10;90.40;;;;;;5122392;28;20311;-64
2023/05/01 02:42:53;;;;;;;5.80;5.30;;;16.10;90.20;;;;;;5121842;28;20279;-64
2023/05/01 02:45:23;;;;;;;6.93;5.70;;;16.10;90.10;;;;;;5124310;27;20278;-64
2023/05/01 02:47:54;;;;;;;5.27;4.27;;;16.10;89.70;;;;;;5127395;28;20215;-64
2023/05/01 02:50:23;;;;;;;5.60;4.80;;;16.10;89.20;;;;;;5124646;28;20572;-64
2023/05/01 02:52:50;;;;;;;5.20;4.57;;;16.10;89.00;;;;;;5122980;27;20197;-64
2023/05/01 02:55:36;;;;;;;4.83;4.37;;;16.10;88.90;;;;;;5121674;27;20209;-64
2023/05/01 02:58:03;;;;;;;7.97;4.73;;;16.10;88.80;;;;;;5128115;27;20276;-64
2023/05/01 03:00:31;;;;;;;8.77;4.50;;;16.10;88.70;;;;;;5131428;27;20210;-64
2023/05/01 03:02:58;;;;;;;4.90;3.87;;;16.10;88.60;;;;;;5125283;27;20223;-64
2023/05/01 03:05:25;;;;;;;5.43;4.33;;;16.20;88.20;;;;;;5128354;27;20210;-64
2023/05/01 03:07:52;;;;;;;5.37;4.03;;;16.10;88.10;;;;;;5129631;27;20582;-64
2023/05/01 03:10:19;;;;;;;7.77;4.50;;;16.20;87.80;;;;;;5124505;27;20558;-64
2023/05/01 03:12:46;;;;;;;6.63;4.33;;;16.10;87.70;;;;;;5133090;27;20201;-64
2023/05/01 03:15:14;;;;;;;4.57;4.13;;;16.10;87.70;;;;;;5131615;27;20203;-64
2023/05/01 03:17:41;;;;;;;6.07;4.60;;;16.10;87.30;;;;;;5129358;27;20334;-64
2023/05/01 03:20:09;;;;;;;7.00;4.70;;;16.20;87.10;;;;;;5127570;27;20227;-64
2023/05/01 03:22:36;;;;;;;5.33;4.17;;;16.20;87.10;;;;;;5132129;27;20203;-64
2023/05/01 03:25:04;;;;;;;5.43;3.87;;;16.20;87.00;;;;;;5124770;27;20196;-64
2023/05/01 03:27:31;;;;;;;4.90;4.20;;;16.20;86.90;;;;;;5130351;27;20205;-64
2023/05/01 03:29:58;;;;;;;6.10;4.30;;;16.10;87.00;;;;;;5126377;27;20790;-64
2023/05/01 03:32:28;;;;;;;5.83;4.27;;;16.10;86.90;;;;;;5124665;27;20294;-64
2023/05/01 03:34:56;;;;;;;7.33;4.30;;;16.20;86.50;;;;;;5124383;27;20232;-64
2023/05/01 03:37:23;;;;;;;4.20;3.73;;;16.10;86.30;;;;;;5125554;27;20547;-64
2023/05/01 03:39:51;;;;;;;6.40;4.73;;;16.10;86.00;;;;;;5132772;27;20242;-64
2023/05/01 03:42:18;;;;;;;4.63;3.70;;;16.10;86.10;;;;;;5129859;27;20628;-64
2023/05/01 03:44:45;;;;;;;6.83;4.00;;;16.00;86.00;;;;;;5130847;27;20235;-64
2023/05/01 03:47:13;;;;;;;6.17;4.30;;;16.10;86.10;;;;;;5133736;27;20211;-64
2023/05/01 03:49:42;;;;;;;4.60;4.10;;;16.00;86.10;;;;;;5126669;27;20286;-63
2023/05/01 03:52:11;;;;;;;4.23;3.83;;;16.00;86.30;;;;;;5116215;27;20659;-63
2023/05/01 03:54:38;;;;;;;5.83;4.00;;;16.00;86.50;;;;;;5121682;27;20238;-64
2023/05/01 03:57:28;;;;;;;4.70;4.30;;;16.00;86.80;;;;;;5127095;27;20225;-64
2023/05/01 03:59:56;;;;;;;3.93;3.53;;;15.90;87.00;;;;;;5128085;27;20200;-64
2023/05/01 04:02:23;;;;;;;5.80;4.60;;;15.90;87.20;;;;;;5117144;27;20661;-63
2023/05/01 04:04:50;;;;;;;6.67;4.23;;;15.90;87.20;;;;;;5126019;27;20196;-63
2023/05/01 04:07:17;;;;;;;7.70;5.33;;;15.90;87.40;;;;;;5126177;27;20270;-64
2023/05/01 04:09:47;;;;;;;6.10;5.23;;;15.80;87.60;;;;;;5133172;27;20192;-64
2023/05/01 04:12:14;;;;;;;9.20;5.60;;;15.80;87.70;;;;;;5124307;27;20201;-64
2023/05/01 04:14:43;;;;;;;7.37;6.17;;;15.80;87.90;;;;;;5126425;27;20650;-64
2023/05/01 04:17:11;;;;;;;6.73;6.07;;;15.80;88.20;;;;;;5128709;27;20663;-64
2023/05/01 04:19:38;;;;;;;7.57;6.73;;;15.80;88.40;;;;;;5122908;27;20201;-64
2023/05/01 04:22:05;;;;;;;6.93;6.17;;;15.80;88.70;;;;;;5132989;27;20201;-64
2023/05/01 04:24:33;;;;;;;7.73;5.93;;;15.80;88.90;;;;;;5129184;27;20215;-63
2023/05/01 04:27:00;;;;;;;7.03;6.33;;;15.80;89.20;;;;;;5128953;27;20205;-65
2023/05/01 04:29:27;;;;;;;10.20;7.10;;;15.80;89.50;;;;;;5120994;27;20274;-64
2023/05/01 04:31:55;;;;;;;9.17;7.57;;;15.70;90.10;;;;;;5129121;27;20195;-64
2023/05/01 04:34:23;;;;;;;8.40;6.87;;;15.70;89.90;;;;;;5122461;27;20547;-63
2023/05/01 04:36:50;;;;;;;10.50;8.67;;;15.70;90.00;;;;;;5121098;27;20228;-64
2023/05/01 04:39:18;;;;;;;12.17;8.97;;;15.70;90.10;;;;;;5132844;27;20298;-64
2023/05/01 04:41:45;;;;;;;10.87;8.70;;;15.70;90.30;;;;;;5128468;27;20216;-64
2023/05/01 04:44:13;;;;;;;11.23;9.80;;;15.70;90.40;;;;;;5132984;27;20439;-64
2023/05/01 04:46:40;;;;;;;11.67;9.77;;;15.70;90.60;;;;;;5132069;27;20205;-64
2023/05/01 04:49:08;;;;;;;10.53;9.20;;;15.70;90.70;;;;;;5121670;27;20219;-64
2023/05/01 04:51:35;;;;;;;13.30;10.73;;;15.70;90.80;;;;;;5121694;27;20282;-64
2023/05/01 04:54:03;;;;;;;11.17;9.90;;;15.70;90.90;;;;;;5125767;27;20193;-64
2023/05/01 04:56:33;;;;;;;13.00;10.93;;;15.70;91.00;;;;;;5112582;27;20193;-64
2023/05/01 04:59:01;;;;;;;14.30;11.27;;;15.70;91.20;;;;;;5128808;27;20204;-64
2023/05/01 05:01:29;;;;;;;14.73;11.27;;;15.70;91.30;;;;;;5123335;27;20196;-64
2023/05/01 05:03:57;;;;;;;12.03;10.40;;;15.60;91.30;;;;;;5133174;27;20206;-63
2023/05/01 05:06:25;;;;;;;20.00;10.53;;;15.70;91.50;;;;;;5128305;27;20193;-64
2023/05/01 05:08:53;;;;;;;12.67;11.00;;;15.70;91.50;;;;;;5125009;27;20204;-63
2023/05/01 05:11:19;;;;;;;11.73;10.50;;;15.70;91.60;;;;;;5124344;27;20204;-64
2023/05/01 05:14:05;;;;;;;14.70;11.27;;;15.70;91.60;;;;;;5125780;27;20273;-64
2023/05/01 05:16:32;;;;;;;14.40;10.73;;;15.70;91.70;;;;;;5122387;27;20701;-64
2023/05/01 05:18:59;;;;;;;12.70;11.30;;;15.70;91.70;;;;;;5131930;27;20634;-63
2023/05/01 05:21:28;;;;;;;12.07;10.87;;;15.80;91.80;;;;;;5118893;27;20283;-64
2023/05/01 05:23:57;;;;;;;13.73;11.77;;;15.70;91.80;;;;;;5125187;27;20291;-64
2023/05/01 05:26:25;;;;;;;13.77;11.07;;;15.80;91.90;;;;;;5130233;27;20204;-64
2023/05/01 05:28:55;;;;;;;14.00;11.33;;;15.70;91.90;;;;;;5129187;27;20195;-64
2023/05/01 05:31:22;;;;;;;13.37;11.47;;;15.80;92.00;;;;;;5130322;27;20302;-64
2023/05/01 05:33:49;;;;;;;11.57;10.40;;;15.80;92.10;;;;;;5122954;27;20541;-64
2023/05/01 05:36:17;;;;;;;12.93;10.80;;;15.80;92.20;;;;;;5125781;27;20219;-64
2023/05/01 05:38:44;;;;;;;13.83;10.90;;;15.80;92.20;;;;;;5107895;27;20217;-64
2023/05/01 05:41:16;;;;;;;12.90;11.67;;;15.80;92.30;;;;;;5122798;27;20227;-64
2023/05/01 05:43:44;;;;;;;16.60;11.47;;;15.80;92.40;;;;;;5124879;27;20641;-64
2023/05/01 05:46:11;;;;;;;13.13;10.60;;;15.90;92.40;;;;;;5120915;27;20232;-64
2023/05/01 05:48:40;;;;;;;12.27;11.00;;;15.90;92.50;;;;;;5127142;27;20203;-64
2023/05/01 05:51:08;;;;;;;14.00;11.60;;;15.90;92.50;;;;;;5128761;27;20626;-64
2023/05/01 05:53:35;;;;;;;14.00;11.30;;;16.00;92.50;;;;;;5122967;27;20192;-64
2023/05/01 05:56:02;;;;;;;14.80;10.80;;;16.00;92.50;;;;;;5125490;27;20232;-63
2023/05/01 05:58:30;;;;;;;13.30;10.03;;;16.10;92.50;;;;;;5125874;27;20212;-64
2023/05/01 06:00:57;;;;;;;13.60;10.40;;;16.10;92.50;;;;;;5126930;27;20201;-64
2023/05/01 06:03:25;;;;;;;11.27;10.13;;;16.20;92.50;;;;;;5123554;27;20194;-64
2023/05/01 06:05:57;;;;;;;17.10;10.90;;;16.20;92.40;;;;;;5125672;27;20666;-64
2023/05/01 06:08:24;;;;;;;15.00;9.57;;;16.30;92.50;;;;;;5126853;27;20197;-64
2023/05/01 06:10:51;;;;;;;10.73;9.63;;;16.40;92.50;;;;;;5120945;27;20307;-64
2023/05/01 06:13:18;;;;;;;14.10;10.47;;;16.50;92.40;;;;;;5125691;27;20206;-64
2023/05/01 06:15:48;;;;;;;10.97;9.20;;;16.50;92.30;;;;;;5127271;27;20198;-64
2023/05/01 06:18:15;;;;;;;10.87;8.83;;;16.60;92.20;;;;;;5129069;27;20561;-64
2023/05/01 06:20:42;;;;;;;15.00;10.17;;;16.60;92.10;;;;;;5122070;27;20225;-64
2023/05/01 06:23:09;;;;;;;9.77;8.77;;;16.70;91.90;;;;;;5130273;27;20229;-64
2023/05/01 06:25:48;;;;;;;17.00;9.07;;;16.70;91.60;;;;;;5120371;27;20213;-64
2023/05/01 06:28:15;;;;;;;13.20;8.50;;;16.70;91.50;;;;;;5120591;27;20244;-64
2023/05/01 06:30:42;;;;;;;11.40;8.83;;;16.70;91.40;;;;;;5127972;27;20196;-64
2023/05/01 06:33:10;;;;;;;13.47;8.73;;;16.80;91.50;;;;;;5128814;27;20570;-64
2023/05/01 06:35:39;;;;;;;11.17;8.60;;;16.80;91.40;;;;;;5118960;28;20206;-64
2023/05/01 06:38:06;;;;;;;9.03;7.60;;;16.90;91.40;;;;;;5134980;27;20234;-64
2023/05/01 06:40:34;;;;;;;10.60;7.07;;;16.90;91.20;;;;;;5120067;28;20228;-63
2023/05/01 06:43:02;;;;;;;10.47;7.40;;;17.00;90.80;;;;;;5126483;28;20236;-64
2023/05/01 06:45:29;;;;;;;13.57;7.20;;;17.00;90.50;;;;;;5119071;28;20597;-64
2023/05/01 06:47:56;;;;;;;10.10;6.83;;;17.10;90.30;;;;;;5122873;27;20250;-64
2023/05/01 06:50:23;;;;;;;13.50;7.47;;;17.10;89.50;;;;;;5120007;28;20518;-66
2023/05/01 06:52:50;;;;;;;10.07;5.93;;;17.10;89.00;;;;;;5120951;27;20556;-67
2023/05/01 06:55:17;;;;;;;10.53;6.10;;;17.20;88.70;;;;;;5124340;28;20253;-64
2023/05/01 06:57:45;;;;;;;7.77;5.83;;;17.20;88.00;;;;;;5120903;28;20311;-66
2023/05/01 07:00:12;;;;;;;9.10;5.80;;;17.20;88.10;;;;;;5120917;28;20259;-65
2023/05/01 07:02:39;;;;;;;8.83;6.00;;;17.30;87.30;;;;;;5123742;28;20190;-65
2023/05/01 07:05:07;;;;;;;8.90;5.63;;;17.30;87.00;;;;;;5117294;28;20205;-65
2023/05/01 07:07:35;;;;;;;9.63;5.27;;;17.30;85.70;;;;;;5121021;28;20251;-64
2023/05/01 07:10:04;;;;;;;8.47;5.43;;;17.30;85.40;;;;;;5120376;28;20228;-65
2023/05/01 07:12:32;;;;;;;8.57;5.07;;;17.30;84.80;;;;;;5120881;27;20248;-65
2023/05/01 07:14:59;;;;;;;9.50;4.90;;;17.40;84.80;;;;;;5123165;28;20550;-64
2023/05/01 07:17:27;;;;;;;11.80;4.77;;;17.40;84.80;;;;;;5121444;27;20254;-66
2023/05/01 07:19:57;;;;;;;8.53;4.60;;;17.40;84.20;;;;;;5122035;28;20205;-65
2023/05/01 07:22:24;;;;;;;7.87;4.43;;;17.50;82.70;;;;;;5114910;28;20604;-63
2023/05/01 07:24:51;;;;;;;5.10;4.33;;;17.50;82.40;;;;;;5117192;28;20549;-63
2023/05/01 07:27:19;;;;;;;4.77;3.90;;;17.50;81.00;;;;;;5120155;28;20207;-63
2023/05/01 07:29:46;;;;;;;8.47;4.60;;;17.60;81.70;;;;;;5119155;28;20285;-64
2023/05/01 07:32:13;;;;;;;8.80;4.07;;;17.60;81.80;;;;;;5119073;28;20202;-66
2023/05/01 07:34:40;;;;;;;8.37;4.00;;;17.70;80.90;;;;;;5120890;27;20288;-64
2023/05/01 07:37:07;;;;;;;11.70;5.07;;;17.70;79.80;;;;;;5118851;27;20283;-65
2023/05/01 07:39:34;;;;;;;8.07;4.30;;;17.70;79.10;;;;;;5116383;28;20202;-65
2023/05/01 07:42:01;;;;;;;8.57;4.20;;;17.70;79.10;;;;;;5120782;27;20671;-65
2023/05/01 07:44:28;;;;;;;6.17;4.27;;;17.70;78.90;;;;;;5126897;27;20327;-65
2023/05/01 07:47:01;;;;;;;8.53;4.17;;;17.70;78.90;;;;;;5125823;27;20602;-65
2023/05/01 07:49:28;;;;;;;8.20;3.57;;;17.70;79.30;;;;;;5124958;27;20214;-63
2023/05/01 07:51:55;;;;;;;9.27;4.03;;;17.60;78.60;;;;;;5124725;27;20435;-66
2023/05/01 07:54:22;;;;;;;6.50;3.40;;;17.70;78.60;;;;;;5124666;27;20197;-66
2023/05/01 07:56:49;;;;;;;5.97;3.80;;;17.60;78.40;;;;;;5124748;27;20191;-65
2023/05/01 07:59:16;;;;;;;11.93;4.30;;;17.70;78.30;;;;;;5127392;27;20214;-65
2023/05/01 08:01:43;;;;;;;9.67;3.73;;;17.70;78.30;;;;;;5125532;27;20237;-63
2023/05/01 08:04:13;;;;;;;7.20;3.53;;;17.70;78.30;;;;;;5131426;27;20654;-63
2023/05/01 08:06:40;;;;;;;6.23;3.57;;;17.80;78.20;;;;;;5123809;27;20222;-65
2023/05/01 08:09:07;;;;;;;8.40;3.67;;;17.80;76.60;;;;;;5132224;27;20210;-66
2023/05/01 08:11:34;;;;;;;6.20;3.47;;;17.90;77.20;;;;;;5122849;27;20203;-63
2023/05/01 08:14:02;;;;;;;8.03;3.60;;;17.90;76.80;;;;;;5125526;27;20211;-63
2023/05/01 08:16:29;;;;;;;4.93;3.80;;;17.90;76.70;;;;;;5128441;27;20203;-65
2023/05/01 08:18:56;;;;;;;7.53;4.10;;;18.00;75.20;;;;;;5123335;27;20318;-63
2023/05/01 08:21:23;;;;;;;9.27;4.20;;;18.00;76.10;;;;;;5125628;27;20222;-64
2023/05/01 08:23:50;;;;;;;9.83;3.53;;;18.00;76.50;;;;;;5128979;27;20246;-61
2023/05/01 08:26:17;;;;;;;8.00;3.83;;;18.10;76.90;;;;;;5125716;27;20201;-61
2023/05/01 08:28:47;;;;;;;7.93;3.60;;;18.00;76.80;;;;;;5131397;27;20700;-60
2023/05/01 08:31:14;;;;;;;8.20;4.30;;;18.10;76.10;;;;;;5118349;27;20213;-62
2023/05/01 08:33:42;;;;;;;7.03;4.27;;;18.10;76.10;;;;;;5124082;27;20230;-64
2023/05/01 08:36:10;;;;;;;7.37;4.00;;;18.20;76.30;;;;;;5120401;27;20589;-63
2023/05/01 08:38:37;;;;;;;6.70;4.13;;;18.20;75.90;;;;;;5123567;27;20252;-60
2023/05/01 08:41:05;;;;;;;7.07;4.10;;;18.30;76.50;;;;;;5125045;27;20199;-63
2023/05/01 08:43:32;;;;;;;8.30;4.67;;;18.40;75.20;;;;;;5126175;27;20305;-61
2023/05/01 08:46:00;;;;;;;6.90;4.10;;;18.30;74.20;;;;;;5122858;27;20230;-60
2023/05/01 08:48:28;;;;;;;7.67;3.37;;;18.40;73.90;;;;;;5119241;27;20620;-63
2023/05/01 08:50:59;;;;;;;8.63;3.80;;;18.40;74.90;;;;;;5123444;27;20206;-62
2023/05/01 08:53:27;;;;;;;8.10;3.57;;;18.50;75.30;;;;;;5125705;27;20208;-62
2023/05/01 08:55:55;;;;;;;9.33;4.20;;;18.60;73.70;;;;;;5121439;27;20197;-62
2023/05/01 08:58:24;;;;;;;7.70;3.33;;;18.60;73.40;;;;;;5122027;27;20687;-62
2023/05/01 09:00:55;;;;;;;12.00;4.20;;;18.60;73.50;;;;;;5121831;27;20273;-62
2023/05/01 09:03:23;;;;;;;10.83;4.00;;;18.60;72.50;;;;;;5123496;27;20219;-62
2023/05/01 09:05:52;;;;;;;6.13;4.17;;;18.70;72.40;;;;;;5118963;27;20234;-62
2023/05/01 09:08:19;;;;;;;6.30;4.07;;;18.70;71.40;;;;;;5123517;27;20218;-62
2023/05/01 09:10:48;;;;;;;5.33;3.60;;;18.80;71.60;;;;;;5122233;27;20318;-62
2023/05/01 09:13:15;;;;;;;5.97;3.70;;;18.80;72.50;;;;;;5117874;27;20200;-62
2023/05/01 09:15:43;;;;;;;4.63;3.77;;;18.90;72.20;;;;;;5120672;27;20238;-62
2023/05/01 09:18:11;;;;;;;5.33;3.60;;;19.00;73.00;;;;;;5124802;27;20218;-62
2023/05/01 09:20:39;;;;;;;5.50;3.53;;;19.20;72.00;;;;;;5117422;27;20260;-62
2023/05/01 09:23:06;;;;;;;7.33;3.97;;;19.30;70.90;;;;;;5116327;27;20623;-63
2023/05/01 09:25:33;;;;;;;4.47;3.23;;;19.40;69.40;;;;;;5122585;27;20234;-63
2023/05/01 09:28:00;;;;;;;4.53;3.57;;;19.40;69.10;;;;;;5117415;27;20687;-62
2023/05/01 09:30:35;;;;;;;9.10;4.00;;;19.40;69.30;;;;;;5125471;27;20650;-62
2023/05/01 09:33:13;;;;;;;3.97;3.07;;;19.40;69.60;;;;;;5123668;27;20206;-62
2023/05/01 09:35:58;;;;;;;6.27;3.83;;;19.40;67.80;;;;;;5124231;27;20197;-62
2023/05/01 09:38:27;;;;;;;5.83;3.23;;;19.30;67.60;;;;;;5123979;27;20222;-62
2023/05/01 09:41:02;;;;;;;4.50;3.47;;;19.20;68.50;;;;;;5123393;27;20196;-63
2023/05/01 09:43:30;;;;;;;6.13;3.60;;;19.10;68.40;;;;;;5123944;27;20198;-63
2023/05/01 09:46:10;;;;;;;4.33;3.57;;;18.90;69.10;;;;;;5121278;27;20226;-64
2023/05/01 09:48:37;;;;;;;8.23;3.80;;;18.90;70.30;;;;;;5119736;27;20199;-65
2023/05/01 09:51:23;;;;;;;5.13;3.10;;;18.80;71.60;;;;;;5127492;27;20202;-66
2023/05/01 09:53:51;;;;;;;5.63;3.77;;;18.60;72.20;;;;;;5123279;27;20259;-66
2023/05/01 09:56:20;;;;;;;9.43;4.20;;;18.60;73.00;;;;;;5127518;27;20194;-65
2023/05/01 09:58:50;;;;;;;6.47;4.33;;;18.50;74.40;;;;;;5120132;27;20218;-67
2023/05/01 10:01:18;;;;;;;5.57;2.80;;;18.50;75.70;;;;;;5122653;27;20201;-65
2023/05/01 10:03:53;;;;;;;5.13;3.50;;;18.60;74.10;;;;;;5120723;27;20231;-66
2023/05/01 10:06:27;;;;;;;5.27;3.33;;;18.60;71.50;;;;;;5120991;27;20197;-66
2023/05/01 10:08:54;;;;;;;6.37;4.07;;;18.70;73.10;;;;;;5123586;27;20206;-65
2023/05/01 10:11:22;;;;;;;9.43;4.10;;;18.80;74.30;;;;;;5123125;27;20211;-65
2023/05/01 10:14:08;;;;;;;4.93;3.13;;;18.90;75.20;;;;;;5122221;27;20266;-65
2023/05/01 10:16:37;;;;;;;4.97;3.37;;;19.10;72.70;;;;;;5126987;27;20588;-65
2023/05/01 10:19:05;;;;;;;6.80;3.43;;;19.20;73.10;;;;;;5122433;27;20592;-64
2023/05/01 10:21:32;;;;;;;7.50;4.17;;;19.30;73.30;;;;;;5125327;27;20652;-64
2023/05/01 10:24:04;;;;;;;6.13;3.67;;;19.40;73.90;;;;;;5120307;27;20630;-65
2023/05/01 10:26:36;;;;;;;7.50;4.57;;;19.60;72.80;;;;;;5129396;27;20637;-64
2023/05/01 10:29:03;;;;;;;6.73;4.47;;;19.80;71.80;;;;;;5120204;27;20211;-61
2023/05/01 10:31:31;;;;;;;4.70;3.43;;;20.00;71.20;;;;;;5120256;27;20204;-62
2023/05/01 10:34:00;;;;;;;5.83;3.73;;;20.10;71.70;;;;;;5121017;27;20568;-63
2023/05/01 10:36:43;;;;;;;7.43;3.70;;;20.20;69.90;;;;;;5125444;27;20195;-62
2023/05/01 10:39:33;;;;;;;5.13;3.50;;;20.30;68.50;;;;;;5125569;28;20653;-62
2023/05/01 10:42:02;;;;;;;8.53;3.67;;;20.20;68.50;;;;;;5119836;28;20246;-62
2023/05/01 10:44:30;;;;;;;3.47;3.13;;;20.30;68.20;;;;;;5125204;28;20240;-61
2023/05/01 10:46:57;;;;;;;6.17;3.63;;;20.20;67.40;;;;;;5121535;28;20204;-65
2023/05/01 10:49:44;;;;;;;4.17;3.77;;;20.20;68.40;;;;;;5119063;28;20282;-66
2023/05/01 10:52:12;;;;;;;3.43;3.13;;;20.20;68.20;;;;;;5129740;28;20286;-66
2023/05/01 10:54:39;;;;;;;7.33;4.47;;;20.20;66.90;;;;;;5119448;28;20296;-63
2023/05/01 10:57:05;;;;;;;6.13;4.13;;;20.30;64.80;;;;;;5120642;27;20199;-64
2023/05/01 10:59:59;;;;;;;8.10;3.90;;;20.20;66.20;;;;;;5124300;27;20302;-66
2023/05/01 11:02:26;;;;;;;6.83;3.93;;;20.20;67.10;;;;;;5118532;28;20238;-64
2023/05/01 11:04:54;;;;;;;5.03;3.87;;;20.30;66.20;;;;;;5125953;28;20247;-64
2023/05/01 11:07:23;;;;;;;3.33;3.03;;;20.30;65.90;;;;;;5117458;28;20263;-64
2023/05/01 11:09:59;;;;;;;5.97;2.97;;;20.30;65.20;;;;;;5124203;27;20196;-65
2023/05/01 11:12:47;;;;;;;6.70;3.93;;;20.40;66.10;;;;;;5119347;28;20226;-66
2023/05/01 11:15:33;;;;;;;5.40;3.30;;;20.40;65.00;;;;;;5122916;28;20584;-65
2023/05/01 11:18:01;;;;;;;8.43;3.73;;;20.50;66.10;;;;;;5127193;27;20203;-66
2023/05/01 11:20:34;;;;;;;5.73;3.40;;;20.60;66.30;;;;;;5128053;27;20208;-67
2023/05/01 11:23:01;;;;;;;11.50;3.77;;;20.70;65.70;;;;;;5129382;27;20591;-64
2023/05/01 11:25:30;;;;;;;5.00;4.00;;;20.80;66.30;;;;;;5125788;27;20196;-65
2023/05/01 11:28:01;;;;;;;7.17;3.60;;;20.80;65.20;;;;;;5123088;27;20205;-66
2023/05/01 11:30:41;;;;;;;5.83;3.57;;;20.80;64.30;;;;;;5127718;27;20208;-64
2023/05/01 11:33:08;;;;;;;3.07;2.63;;;20.80;65.50;;;;;;5126101;27;20203;-65
2023/05/01 11:35:37;;;;;;;7.50;2.90;;;20.80;65.20;;;;;;5124441;27;20192;-64
2023/05/01 11:38:05;;;;;;;5.07;3.00;;;20.80;65.00;;;;;;5123516;27;20243;-64
2023/05/01 11:40:33;;;;;;;4.73;2.90;;;20.80;64.20;;;;;;5128812;27;20783;-64
2023/05/01 11:43:08;;;;;;;5.70;3.83;;;20.80;64.30;;;;;;5128283;27;20203;-64
2023/05/01 11:45:36;;;;;;;4.53;4.00;;;20.90;65.20;;;;;;5125061;27;20270;-64
2023/05/01 11:48:12;;;;;;;8.30;3.37;;;20.90;66.30;;;;;;5132320;27;20210;-64
2023/05/01 11:50:40;;;;;;;6.87;3.23;;;21.00;66.60;;;;;;5126070;27;20214;-64
2023/05/01 11:53:14;;;;;;;6.53;3.20;;;21.00;65.70;;;;;;5127273;27;20245;-64
2023/05/01 11:55:42;;;;;;;3.37;3.00;;;21.00;63.90;;;;;;5120515;27;20330;-65
2023/05/01 11:58:09;;;;;;;5.63;3.00;;;20.80;64.30;;;;;;5125778;27;20737;-64
2023/05/01 12:00:40;;;;;;;4.23;3.10;;;20.70;63.80;;;;;;5126583;27;20192;-64
2023/05/01 12:03:09;;;;;;;3.80;3.47;;;20.60;64.80;;;;;;5123118;27;20221;-64
2023/05/01 12:05:38;;;;;;;5.53;3.30;;;20.40;66.30;;;;;;5127642;27;20283;-64
2023/05/01 12:08:23;;;;;;;5.30;3.57;;;20.30;67.70;;;;;;5130965;27;20200;-64
2023/05/01 12:10:55;;;;;;;5.27;3.30;;;20.30;68.50;;;;;;5126224;27;20195;-64
2023/05/01 12:13:23;;;;;;;4.87;3.30;;;20.20;68.70;;;;;;5122436;27;20212;-65
2023/05/01 12:15:52;;;;;;;4.87;3.80;;;20.10;69.20;;;;;;5126236;27;20223;-65
2023/05/01 12:18:22;;;;;;;3.60;3.30;;;20.00;69.60;;;;;;5123171;27;20211;-66
2023/05/01 12:20:51;;;;;;;3.73;3.27;;;19.90;69.70;;;;;;5124589;27;20238;-65
2023/05/01 12:23:31;;;;;;;4.83;3.47;;;19.90;70.60;;;;;;5124886;27;20282;-66
2023/05/01 12:25:58;;;;;;;6.17;3.50;;;20.00;70.90;;;;;;5122357;27;20579;-65
2023/05/01 12:28:26;;;;;;;5.23;3.53;;;20.00;70.90;;;;;;5120406;27;20634;-65
2023/05/01 12:31:01;;;;;;;5.80;3.20;;;19.90;71.60;;;;;;5128001;27;20553;-65
2023/05/01 12:33:31;;;;;;;3.80;3.40;;;20.00;72.10;;;;;;5119734;27;20195;-65
2023/05/01 12:36:10;;;;;;;6.57;3.20;;;20.00;72.10;;;;;;5120363;27;20227;-65
2023/05/01 12:38:37;;;;;;;2.93;2.60;;;20.00;72.10;;;;;;5122925;27;20216;-65
2023/05/01 12:41:07;;;;;;;4.53;2.90;;;20.00;70.00;;;;;;5117568;27;20619;-65
2023/05/01 12:43:36;;;;;;;4.10;3.23;;;19.90;69.00;;;;;;5122598;27;20196;-65
2023/05/01 12:46:05;;;;;;;5.13;2.90;;;19.80;69.10;;;;;;5123109;27;20290;-65
2023/05/01 12:48:37;;;;;;;3.70;3.07;;;19.80;69.60;;;;;;5123031;27;20222;-65
2023/05/01 12:51:05;;;;;;;5.87;3.20;;;19.70;70.20;;;;;;5126323;27;20200;-65
2023/05/01 12:53:32;;;;;;;4.30;3.73;;;19.70;70.70;;;;;;5125665;27;20200;-65
2023/05/01 12:56:00;;;;;;;6.87;3.80;;;19.70;71.00;;;;;;5128917;27;20194;-65
2023/05/01 12:58:36;;;;;;;5.77;4.20;;;19.70;70.90;;;;;;5127392;27;20591;-65